ADDS METAR Data INFO
IDs: Format: Raw Decoded Include TAF

Data at: 0558 UTC 25 Jun 2018

KSSF 250553Z AUTO 14008KT 10SM BKN017 27/23 A2991 RMK AO2 SLP115 T02670233 10344 20267 403830256 51010 $
KSSF 250453Z AUTO 15009KT 10SM CLR 27/23 A2989 RMK AO2 SLP108 T02720233 $
KSSF 250353Z AUTO 14011KT 10SM CLR 28/22 A2988 RMK AO2 SLP104 T02830222 $
KSSF 250253Z 13014KT 10SM CLR 29/22 A2985 RMK AO2 SLP093 T02940217 53017 $
KSSF 250153Z 13012KT 10SM CLR 31/23 A2982 RMK AO2 SLP084 T03060228 $
KSSF 250053Z 13015KT 10SM SCT046 33/22 A2981 RMK AO2 SLP081 T03280222 $
KSSF 242353Z 12015G20KT 10SM CLR 34/22 A2980 RMK AO2 SLP077 T03440217 10383 20344 57008 $
KSSF 242253Z 13015G20KT 10SM BKN055 36/22 A2980 RMK AO2 SLP077 T03560217 $
KSSF 242153Z 15016G22KT 10SM SCT060 36/21 A2982 RMK AO2 SLP083 T03610211 $
KSSF 242053Z 14016G22KT 10SM FEW060 38/21 A2982 RMK AO2 SLP083 T03780206 58004 $
KSSF 241953Z 17013G21KT 10SM FEW060 38/20 A2983 RMK AO2 SLP086 T03780200 $
KSSF 241853Z 14016G25KT 10SM FEW055 37/21 A2984 RMK AO2 SLP087 T03670206 $
KSSF 241753Z 17008G19KT 10SM CLR 36/21 A2984 RMK AO2 SLP088 T03560211 10361 20256 56004 $
KSSF 241653Z 17013G19KT 10SM CLR 34/22 A2984 RMK AO2 SLP089 T03390217 $
KSSF 241553Z 20010KT 10SM CLR 32/22 A2984 RMK AO2 SLP090 T03220222 $
KSSF 241453Z 18008KT 10SM FEW023 31/23 A2985 RMK AO2 SLP093 T03060228 53003 $
KSSF 241423Z 19012KT 10SM SCT021 29/23 A2985 RMK AO2 T02940228 $
KSSF 241353Z 16010G16KT 10SM BKN020 28/23 A2984 RMK AO2 SLP092 T02830233 $
KSSF 241300Z 16010KT 8SM BKN017 BKN023 27/24 A2984 RMK AO2 T02720239 $
KSSF 241253Z 17010KT 7SM SCT017 27/24 A2984 RMK AO2 SLP089 T02670239 $
KSSF 241153Z 14006KT 6SM BR CLR 26/23 A2984 RMK AO2 SLP090 T02560233 10278 20256 58005 $
KSSF 241053Z AUTO 14004KT 9SM CLR 26/23 A2986 RMK AO2 SLP096 T02610233 $
KSSF 240953Z AUTO 16009KT 10SM FEW023 FEW035 27/23 A2985 RMK AO2 SLP091 T02670233 $
KSSF 240853Z AUTO 14006KT 10SM FEW022 SCT029 OVC039 27/24 A2985 RMK AO2 SLP094 T02720239 50005 $
KSSF 240837Z AUTO 14007KT 10SM FEW022 SCT030 OVC037 27/24 A2986 RMK AO2 T02720239 $
KSSF 240822Z AUTO 14007KT 10SM FEW019 BKN029 OVC037 27/24 A2986 RMK AO2 T02720239 $
KSSF 240801Z AUTO 15006KT 10SM SCT019 BKN031 OVC038 27/24 A2986 RMK AO2 T02720239 $
KSSF 240753Z AUTO 15007KT 10SM SCT021 BKN027 BKN033 27/24 A2986 RMK AO2 SLP095 T02720239 $
KSSF 240653Z AUTO 14009KT 10SM BKN019 BKN024 27/24 A2984 RMK AO2 SLP088 T02720239 $
KSSF 240553Z AUTO 14011KT 10SM BKN020 28/24 A2984 RMK AO2 SLP090 T02780244 10361 20278 403830244 50027 $
KSSF 240453Z AUTO 13009KT 10SM OVC018 28/24 A2984 RMK AO2 SLP090 T02780244 $
KSSF 240353Z AUTO 14013G21KT 10SM OVC019 29/25 A2979 RMK AO2 SLP074 T02890250 $
KSSF 240322Z AUTO 15011G21KT 10SM BKN019 29/25 A2977 RMK AO2 T02940250 $
KSSF 240253Z 14014KT 10SM FEW021 FEW027 30/25 A2976 RMK AO2 SLP063 T03000250 53015 $
KSSF 240153Z 14013KT 10SM CLR 32/24 A2974 RMK AO2 SLP057 T03170244 $
KSSF 240053Z 13018G22KT 10SM FEW047 34/24 A2972 RMK AO2 SLP051 T03390244 $
KSSF 232353Z 13013KT 10SM CLR 36/23 A2971 RMK AO2 SLP047 T03610228 10383 20350 56010 $
KSSF 232253Z 14015G24KT 10SM CLR 37/22 A2972 RMK AO2 SLP048 T03720222 $
KSSF 232153Z 15012G21KT 10SM CLR 37/22 A2973 RMK AO2 SLP053 T03720217 $
KSSF 232053Z 14012G21KT 10SM CLR 38/23 A2974 RMK AO2 SLP056 T03830228 57021 $
KSSF 231953Z 15007G21KT 100V180 10SM FEW050 37/23 A2976 RMK AO2 SLP064 T03670228 $
KSSF 231853Z 14013G18KT 10SM FEW047 37/23 A2978 RMK AO2 SLP070 T03670228